createdAt,value
2019-01-06T00:01:51.840Z,-2.27
2019-01-06T00:07:05.102Z,-2.01
2019-01-06T00:09:35.753Z,-2.05
2019-01-06T00:12:06.822Z,-2.21
2019-01-06T00:14:41.059Z,-1.97
2019-01-06T00:17:09.103Z,-2.01
2019-01-06T00:19:43.155Z,-2.01
2019-01-06T00:22:17.216Z,-2.28
2019-01-06T00:25:01.645Z,-1.86
2019-01-06T00:27:46.039Z,-1.58
2019-01-06T00:30:22.866Z,-1.41
2019-01-06T00:32:51.153Z,-1.58
2019-01-06T00:35:22.011Z,-1.53
2019-01-06T00:38:06.743Z,-1.69
2019-01-06T00:40:46.647Z,-1.60
2019-01-06T00:43:17.290Z,-1.43
2019-01-06T00:45:45.363Z,-1.11
2019-01-06T00:48:25.626Z,-1.30
2019-01-06T00:50:59.321Z,-1.26
2019-01-06T00:53:43.901Z,-1.38
2019-01-06T00:56:28.280Z,-1.52
2019-01-06T00:59:11.288Z,-1.71
2019-01-06T01:01:57.207Z,-1.54
2019-01-06T01:04:41.773Z,-1.13
2019-01-06T01:07:25.249Z,-1.15
2019-01-06T01:10:02.114Z,-1.14
2019-01-06T01:12:32.828Z,-1.02
2019-01-06T01:15:07.188Z,-0.99
2019-01-06T01:17:40.802Z,-0.86
2019-01-06T01:20:20.613Z,-0.64
2019-01-06T01:23:00.648Z,-0.56
2019-01-06T01:25:40.488Z,-0.47
2019-01-06T01:28:11.127Z,-0.18
2019-01-06T01:30:44.877Z,-0.35
2019-01-06T01:33:12.926Z,-0.41
2019-01-06T01:35:40.990Z,-0.47
2019-01-06T01:38:23.901Z,-0.25
2019-01-06T01:41:08.460Z,-0.02
2019-01-06T01:43:52.926Z,-0.15
2019-01-06T01:46:39.982Z,-0.17
2019-01-06T01:49:13.771Z,-0.06
2019-01-06T01:51:53.570Z,-0.30
2019-01-06T01:54:24.454Z,-0.37
2019-01-06T01:56:55.028Z,-0.17
2019-01-06T01:59:25.904Z,-0.12
2019-01-06T02:01:53.994Z,-0.03
2019-01-06T02:04:38.646Z,-0.05
2019-01-06T02:07:06.747Z,-0.16
2019-01-06T02:09:37.352Z,-0.07
2019-01-06T02:12:05.408Z,0.10
2019-01-06T02:14:49.808Z,0.13
2019-01-06T02:17:34.343Z,0.18
2019-01-06T02:20:14.275Z,0.27
2019-01-06T02:22:42.333Z,0.12
2019-01-06T02:25:12.935Z,0.25
2019-01-06T02:27:57.301Z,0.42
2019-01-06T02:30:30.897Z,0.59
2019-01-06T02:33:04.657Z,0.70
2019-01-06T02:35:44.778Z,0.77
2019-01-06T02:38:12.884Z,0.61
2019-01-06T02:40:40.922Z,0.56
2019-01-06T02:43:17.817Z,0.53
2019-01-06T02:45:54.807Z,0.44
2019-01-06T02:48:28.763Z,0.56
2019-01-06T02:51:05.462Z,0.46
2019-01-06T02:53:33.564Z,0.23
2019-01-06T02:56:18.172Z,0.27
2019-01-06T02:58:48.765Z,0.42
2019-01-06T03:01:33.169Z,0.70
2019-01-06T03:04:19.151Z,0.02
2019-01-06T03:06:53.186Z,-0.33
2019-01-06T03:09:37.651Z,-0.19
2019-01-06T03:15:26.276Z,0.15
2019-01-06T03:17:54.330Z,0.23
2019-01-06T03:20:22.409Z,0.38
2019-01-06T03:23:07.221Z,0.21
2019-01-06T03:25:40.845Z,0.18
2019-01-06T03:28:08.936Z,0.27
2019-01-06T03:30:49.058Z,0.44
2019-01-06T03:33:29.450Z,0.65
2019-01-06T03:36:14.271Z,0.71
2019-01-06T03:38:42.369Z,0.72
2019-01-06T03:41:19.193Z,0.73
2019-01-06T03:43:47.285Z,0.77
2019-01-06T03:46:24.076Z,0.81
2019-01-06T03:48:57.769Z,0.79
2019-01-06T03:51:34.442Z,0.88
2019-01-06T03:54:05.552Z,0.68
2019-01-06T03:56:50.050Z,0.40
2019-01-06T03:59:20.706Z,0.07
2019-01-06T04:01:51.288Z,0.16
2019-01-06T04:04:28.687Z,0.49
2019-01-06T04:07:16.145Z,0.64
2019-01-06T04:10:00.796Z,0.71
2019-01-06T04:12:28.836Z,0.71
2019-01-06T04:14:59.687Z,0.78
2019-01-06T04:17:35.407Z,0.53
2019-01-06T04:20:09.165Z,0.50
2019-01-06T04:22:53.934Z,0.47
2019-01-06T04:25:38.387Z,0.44
2019-01-06T04:28:22.911Z,0.52
2019-01-06T04:30:59.765Z,0.65
2019-01-06T04:33:27.864Z,0.04
2019-01-06T04:35:55.931Z,0.11
2019-01-06T04:38:35.846Z,0.08
2019-01-06T04:41:20.847Z,0.22
2019-01-06T04:44:05.260Z,0.17
2019-01-06T04:46:49.732Z,0.43
2019-01-06T04:49:30.612Z,0.45
2019-01-06T04:51:58.681Z,0.40
2019-01-06T04:54:29.504Z,0.45
2019-01-06T04:57:14.073Z,0.54
2019-01-06T04:59:42.128Z,0.56
2019-01-06T05:02:19.013Z,0.63
2019-01-06T05:04:50.116Z,0.59
2019-01-06T05:07:33.066Z,0.46
2019-01-06T05:10:06.669Z,0.59
2019-01-06T05:12:40.476Z,0.59
2019-01-06T05:15:11.389Z,0.50
2019-01-06T05:17:45.310Z,0.54
2019-01-06T05:20:29.711Z,0.43
2019-01-06T05:23:00.649Z,0.59
2019-01-06T05:25:34.640Z,0.18
2019-01-06T05:28:17.851Z,0.16
2019-01-06T05:30:57.961Z,-0.09
2019-01-06T05:33:42.818Z,0.09
2019-01-06T05:36:10.869Z,0.13
2019-01-06T05:38:55.264Z,-0.05
2019-01-06T05:41:29.016Z,0.23
2019-01-06T05:44:05.941Z,0.27
2019-01-06T05:46:34.000Z,0.26
2019-01-06T05:49:04.861Z,0.37
2019-01-06T05:51:48.064Z,0.59
2019-01-06T05:54:16.125Z,0.67
2019-01-06T05:57:00.688Z,0.78
2019-01-06T05:59:34.673Z,0.56
2019-01-06T06:02:08.553Z,0.64
2019-01-06T06:04:39.424Z,0.73
2019-01-06T06:07:22.604Z,0.88
2019-01-06T06:09:53.386Z,1.12
2019-01-06T06:12:21.453Z,1.17
2019-01-06T06:14:52.493Z,1.05
2019-01-06T06:20:22.554Z,1.23
2019-01-06T06:22:50.613Z,1.42
2019-01-06T06:25:35.077Z,1.42
2019-01-06T06:28:03.149Z,1.47
2019-01-06T06:30:32.595Z,1.57
2019-01-06T06:33:17.625Z,1.54
2019-01-06T06:35:48.762Z,1.27
2019-01-06T06:38:25.524Z,1.50
2019-01-06T06:41:05.240Z,1.51
2019-01-06T06:43:45.091Z,1.46
2019-01-06T06:46:18.699Z,1.36
2019-01-06T06:48:55.355Z,1.13
2019-01-06T06:51:25.988Z,0.87
2019-01-06T06:54:08.906Z,0.70
2019-01-06T06:56:36.965Z,0.53
2019-01-06T06:59:05.015Z,0.73
2019-01-06T07:01:42.096Z,0.82
2019-01-06T07:04:19.086Z,0.93
2019-01-06T07:06:55.924Z,1.27
2019-01-06T07:09:40.518Z,1.02
2019-01-06T07:12:26.522Z,1.07
2019-01-06T07:15:00.542Z,1.54
2019-01-06T07:18:05.021Z,2.00
2019-01-06T07:20:51.470Z,2.26
2019-01-06T07:23:25.230Z,1.80
2019-01-06T07:26:10.310Z,2.02
2019-01-06T07:28:38.411Z,1.25
2019-01-06T07:31:24.916Z,1.35
2019-01-06T07:33:53.036Z,1.52
2019-01-06T07:36:26.682Z,1.86
2019-01-06T07:39:00.552Z,2.01
2019-01-06T07:41:46.499Z,2.14
2019-01-06T07:47:07.734Z,1.91
2019-01-06T07:49:35.839Z,2.41
2019-01-06T07:52:09.535Z,2.60
2019-01-06T07:54:43.411Z,2.35
2019-01-06T07:57:11.468Z,2.56
2019-01-06T07:59:55.855Z,2.94
2019-01-06T08:02:23.916Z,3.14
2019-01-06T08:05:09.871Z,3.42
2019-01-06T08:07:40.472Z,3.60
2019-01-06T08:10:15.104Z,3.42
2019-01-06T08:12:59.456Z,3.23
2019-01-06T08:15:39.323Z,3.51
2019-01-06T08:18:12.919Z,3.75
2019-01-06T08:20:52.826Z,3.39
2019-01-06T08:23:37.146Z,3.37
2019-01-06T08:26:11.308Z,2.92
2019-01-06T08:28:42.132Z,3.13
2019-01-06T08:31:16.063Z,3.41
2019-01-06T08:33:49.924Z,3.02
2019-01-06T08:36:34.368Z,3.19
2019-01-06T08:39:02.450Z,3.54
2019-01-06T08:41:39.351Z,3.55
2019-01-06T08:44:09.938Z,3.72
2019-01-06T08:46:40.700Z,4.12
2019-01-06T08:49:17.465Z,4.65
2019-01-06T08:51:45.558Z,4.25
2019-01-06T08:54:22.215Z,3.99
2019-01-06T08:56:53.085Z,4.02
2019-01-06T08:59:37.871Z,4.40
2019-01-06T09:02:22.369Z,4.36
2019-01-06T09:04:59.248Z,4.97
2019-01-06T09:07:43.848Z,5.76
2019-01-06T09:10:14.403Z,6.17
2019-01-06T09:12:48.026Z,6.23
2019-01-06T09:15:18.824Z,5.73
2019-01-06T09:17:55.988Z,5.51
2019-01-06T09:20:24.062Z,5.96
2019-01-06T09:25:43.903Z,5.97
2019-01-06T09:28:17.578Z,5.96
2019-01-06T09:30:57.430Z,4.66
2019-01-06T09:33:28.283Z,3.40
2019-01-06T09:35:59.858Z,3.32
2019-01-06T09:38:36.611Z,4.02
2019-01-06T09:41:07.210Z,3.90
2019-01-06T09:43:35.273Z,4.00
2019-01-06T09:46:03.458Z,3.97
2019-01-06T09:48:37.435Z,4.12
2019-01-06T09:51:11.091Z,3.57
2019-01-06T09:53:44.937Z,3.50
2019-01-06T09:56:18.594Z,3.87
2019-01-06T09:58:46.653Z,4.65
2019-01-06T10:01:23.559Z,4.53
2019-01-06T10:04:03.432Z,3.76
2019-01-06T10:06:34.757Z,4.10
2019-01-06T10:12:16.096Z,3.18
2019-01-06T10:14:52.732Z,2.65
2019-01-06T10:17:23.631Z,3.29
2019-01-06T10:19:51.697Z,3.25
2019-01-06T10:22:36.066Z,3.55
2019-01-06T10:25:12.884Z,4.06
2019-01-06T10:27:41.010Z,4.04
2019-01-06T10:30:24.402Z,3.09
2019-01-06T10:33:09.162Z,2.83
2019-01-06T10:35:53.603Z,3.83
2019-01-06T10:38:36.514Z,3.48
2019-01-06T10:41:21.081Z,3.52
2019-01-06T10:43:55.429Z,3.44
2019-01-06T10:46:29.515Z,4.06
2019-01-06T10:49:09.517Z,4.85
2019-01-06T10:51:49.598Z,5.12
2019-01-06T10:54:34.045Z,5.09
2019-01-06T10:57:13.408Z,5.45
2019-01-06T10:59:44.487Z,4.93
2019-01-06T11:02:18.499Z,3.88
2019-01-06T11:04:58.293Z,3.28
2019-01-06T11:07:29.185Z,4.06
2019-01-06T11:10:02.857Z,3.90
2019-01-06T11:12:36.463Z,4.64
2019-01-06T11:15:23.682Z,3.77
2019-01-06T11:17:56.836Z,3.70
2019-01-06T11:20:35.363Z,4.19
2019-01-06T11:23:18.467Z,4.52
2019-01-06T11:25:52.092Z,5.43
2019-01-06T11:28:20.150Z,4.75
2019-01-06T11:31:04.586Z,4.51
2019-01-06T11:33:32.653Z,4.56
2019-01-06T11:36:03.296Z,4.56
2019-01-06T11:38:48.004Z,5.22
2019-01-06T11:41:16.079Z,5.17
2019-01-06T11:43:46.933Z,4.25
2019-01-06T11:46:15.032Z,4.79
2019-01-06T11:49:01.451Z,5.51
2019-01-06T11:51:32.285Z,4.91
2019-01-06T11:54:00.353Z,5.03
2019-01-06T11:56:40.434Z,5.40
2019-01-06T11:59:23.331Z,5.92
2019-01-06T12:02:03.215Z,5.02
2019-01-06T12:04:40.118Z,4.13
2019-01-06T12:07:10.933Z,5.18
2019-01-06T12:09:44.660Z,5.30
2019-01-06T12:12:18.282Z,5.34
2019-01-06T12:14:46.343Z,5.36
2019-01-06T12:17:14.403Z,5.08
2019-01-06T12:19:48.304Z,4.30
2019-01-06T12:22:21.933Z,3.90
2019-01-06T12:24:59.136Z,3.66
2019-01-06T12:27:32.842Z,4.27
2019-01-06T12:30:12.982Z,4.92
2019-01-06T12:32:43.616Z,4.26
2019-01-06T12:35:17.450Z,4.15
2019-01-06T12:37:45.722Z,4.74
2019-01-06T12:40:25.459Z,4.28
2019-01-06T12:42:59.086Z,4.28
2019-01-06T12:45:32.885Z,3.70
2019-01-06T12:48:19.192Z,3.39
2019-01-06T12:50:47.304Z,3.30
2019-01-06T12:53:27.276Z,2.85
2019-01-06T12:55:55.711Z,3.06
2019-01-06T12:58:32.584Z,2.79
2019-01-06T13:01:17.268Z,3.09
2019-01-06T13:04:00.073Z,3.24
2019-01-06T13:06:31.128Z,3.21
2019-01-06T13:09:17.133Z,2.74
2019-01-06T13:11:48.249Z,2.92
2019-01-06T13:14:19.079Z,2.99
2019-01-06T13:16:47.141Z,2.48
2019-01-06T13:19:24.318Z,2.75
2019-01-06T13:22:10.334Z,2.42
2019-01-06T13:24:38.430Z,1.68
2019-01-06T13:27:23.101Z,1.50
2019-01-06T13:30:03.007Z,1.64
2019-01-06T13:32:47.534Z,1.97
2019-01-06T13:35:18.132Z,1.52
2019-01-06T13:37:46.196Z,1.80
2019-01-06T13:40:16.753Z,1.78
2019-01-06T13:42:56.483Z,1.48
2019-01-06T13:45:40.910Z,1.87
2019-01-06T13:48:20.825Z,1.75
2019-01-06T13:51:05.463Z,1.64
2019-01-06T13:53:45.365Z,1.52
2019-01-06T13:56:13.426Z,1.83
2019-01-06T13:58:50.365Z,1.78
2019-01-06T14:01:36.253Z,2.10
2019-01-06T14:04:04.346Z,2.30
2019-01-06T14:06:32.417Z,2.74
2019-01-06T14:09:00.485Z,1.86
2019-01-06T14:11:44.887Z,1.88
2019-01-06T14:14:21.707Z,1.76
2019-01-06T14:16:52.698Z,1.74
2019-01-06T14:19:20.771Z,1.63
2019-01-06T14:22:05.348Z,1.53
2019-01-06T14:24:33.408Z,1.89
2019-01-06T14:27:17.813Z,2.16
2019-01-06T14:29:48.393Z,2.01
2019-01-06T14:32:33.340Z,1.67
2019-01-06T14:35:10.781Z,1.69
2019-01-06T14:37:50.862Z,1.39
2019-01-06T14:40:27.725Z,1.43
2019-01-06T14:42:55.821Z,1.46
2019-01-06T14:45:40.172Z,1.43
2019-01-06T14:48:26.059Z,1.19
2019-01-06T14:51:12.188Z,1.31
2019-01-06T14:53:52.122Z,1.46
2019-01-06T14:56:20.194Z,1.50
2019-01-06T14:59:06.457Z,1.32
2019-01-06T15:01:40.317Z,1.60
2019-01-06T15:04:08.381Z,1.43
2019-01-06T15:06:45.306Z,1.47
2019-01-06T15:09:30.199Z,1.75
2019-01-06T15:12:14.561Z,1.74
2019-01-06T15:14:51.220Z,1.82
2019-01-06T15:17:24.860Z,1.79
2019-01-06T15:19:52.924Z,1.88
2019-01-06T15:22:39.126Z,1.34
2019-01-06T15:25:15.775Z,1.57
2019-01-06T15:27:52.760Z,1.62
2019-01-06T15:30:32.907Z,2.03
2019-01-06T15:33:06.629Z,2.15
2019-01-06T15:35:37.216Z,2.09
2019-01-06T15:38:08.685Z,2.01
2019-01-06T15:40:36.746Z,1.65
2019-01-06T15:43:04.809Z,1.64
2019-01-06T15:45:38.659Z,1.79
2019-01-06T15:48:23.335Z,1.93
2019-01-06T15:50:51.429Z,1.52
2019-01-06T15:53:19.482Z,1.44
2019-01-06T15:56:03.845Z,1.31
2019-01-06T15:58:48.242Z,1.89
2019-01-06T16:01:24.906Z,1.69
2019-01-06T16:04:09.578Z,1.87
2019-01-06T16:06:53.940Z,2.15
2019-01-06T16:09:25.054Z,2.22
2019-01-06T16:12:11.143Z,2.38
2019-01-06T16:14:51.213Z,2.42
2019-01-06T16:17:35.610Z,2.41
2019-01-06T16:20:03.682Z,2.22
2019-01-06T16:22:48.104Z,2.43
2019-01-06T16:25:27.941Z,2.55
2019-01-06T16:27:56.219Z,2.71
2019-01-06T16:30:24.343Z,2.64
2019-01-06T16:32:52.404Z,2.78
2019-01-06T16:35:26.519Z,2.75
2019-01-06T16:37:57.197Z,2.75
2019-01-06T16:40:41.910Z,2.62
2019-01-06T16:43:18.781Z,2.49
2019-01-06T16:45:52.546Z,2.20
2019-01-06T16:48:37.133Z,2.43
2019-01-06T16:51:07.758Z,2.18
2019-01-06T16:53:44.455Z,2.28
2019-01-06T16:56:29.244Z,2.44
2019-01-06T16:59:12.134Z,2.51
2019-01-06T17:01:40.228Z,2.57
2019-01-06T17:04:08.290Z,2.50
2019-01-06T17:06:36.418Z,2.51
2019-01-06T17:09:23.084Z,2.50
2019-01-06T17:11:53.654Z,2.53
2019-01-06T17:14:21.723Z,2.67
2019-01-06T17:16:55.623Z,2.86
2019-01-06T17:19:35.302Z,2.98
2019-01-06T17:22:19.749Z,2.99
2019-01-06T17:25:04.853Z,3.10
2019-01-06T17:27:38.490Z,3.17
2019-01-06T17:30:08.670Z,3.21
2019-01-06T17:32:45.803Z,3.26
2019-01-06T17:35:19.896Z,3.24
2019-01-06T17:37:47.998Z,3.27
2019-01-06T17:40:21.637Z,3.32
2019-01-06T17:42:55.703Z,3.31
2019-01-06T17:45:23.761Z,3.00
2019-01-06T17:48:00.902Z,2.57
2019-01-06T17:50:38.230Z,2.90
2019-01-06T17:53:06.308Z,2.85
2019-01-06T17:55:34.365Z,3.14
2019-01-06T17:58:08.238Z,3.10
2019-01-06T18:00:39.455Z,3.24
2019-01-06T18:03:25.780Z,3.43
2019-01-06T18:05:59.568Z,3.31
2019-01-06T18:08:36.692Z,3.39
2019-01-06T18:11:22.987Z,3.29
2019-01-06T18:14:02.881Z,3.27
2019-01-06T18:16:47.260Z,3.13
2019-01-06T18:19:24.058Z,3.02
2019-01-06T18:21:54.734Z,2.92
2019-01-06T18:24:22.783Z,3.09
2019-01-06T18:27:07.214Z,3.12
2019-01-06T18:29:51.596Z,3.06
2019-01-06T18:32:25.291Z,3.24
2019-01-06T18:34:55.932Z,3.11
2019-01-06T18:37:40.580Z,3.11
2019-01-06T18:40:18.111Z,3.14
2019-01-06T18:42:46.203Z,3.23
2019-01-06T18:45:14.267Z,3.27
2019-01-06T18:47:48.159Z,3.20
2019-01-06T18:50:24.793Z,3.31
2019-01-06T18:52:52.892Z,3.43
2019-01-06T18:55:38.771Z,3.44
2019-01-06T18:58:12.470Z,3.63
2019-01-06T19:00:49.565Z,3.70
2019-01-06T19:03:17.662Z,3.66
2019-01-06T19:05:54.770Z,3.69
2019-01-06T19:08:39.471Z,3.76
2019-01-06T19:11:25.429Z,3.82
2019-01-06T19:13:53.533Z,3.89
2019-01-06T19:16:24.105Z,3.87
2019-01-06T19:19:10.465Z,3.88
2019-01-06T19:21:47.650Z,3.93
2019-01-06T19:24:25.050Z,3.91
2019-01-06T19:26:58.946Z,3.83
2019-01-06T19:29:32.581Z,3.88
2019-01-06T19:32:00.809Z,3.83
2019-01-06T19:34:31.860Z,3.71
2019-01-06T19:37:05.511Z,3.77
2019-01-06T19:39:42.379Z,3.80
2019-01-06T19:42:10.619Z,3.86
2019-01-06T19:44:38.682Z,3.62
2019-01-06T19:47:23.141Z,3.40
2019-01-06T19:49:51.216Z,3.49
2019-01-06T19:52:21.821Z,3.42
2019-01-06T19:54:52.807Z,3.45
2019-01-06T19:57:26.543Z,3.58
2019-01-06T19:59:57.169Z,3.44
2019-01-06T20:02:27.995Z,3.44
2019-01-06T20:04:56.057Z,3.44
2019-01-06T20:07:24.152Z,3.45
2019-01-06T20:10:01.042Z,3.28
2019-01-06T20:12:44.142Z,3.26
2019-01-06T20:15:18.066Z,3.19
2019-01-06T20:17:48.664Z,3.32
2019-01-06T20:20:32.174Z,3.29
2019-01-06T20:23:18.367Z,3.34
2019-01-06T20:25:55.572Z,3.33
2019-01-06T20:28:23.664Z,3.16
2019-01-06T20:30:54.502Z,3.16
2019-01-06T20:33:25.146Z,3.08
2019-01-06T20:35:59.171Z,3.04
2019-01-06T20:38:30.003Z,3.05
2019-01-06T20:41:00.918Z,3.00
2019-01-06T20:43:31.901Z,2.91
2019-01-06T20:46:05.524Z,2.99
2019-01-06T20:48:45.889Z,2.98
2019-01-06T20:51:32.031Z,3.04
2019-01-06T20:54:02.642Z,2.88
2019-01-06T20:56:30.700Z,2.75
2019-01-06T20:58:58.831Z,2.92
2019-01-06T21:01:43.591Z,2.89
2019-01-06T21:04:14.215Z,2.77
2019-01-06T21:06:58.992Z,2.46
2019-01-06T21:09:27.101Z,2.64
2019-01-06T21:12:03.875Z,2.63
2019-01-06T21:14:34.488Z,2.62
2019-01-06T21:17:19.151Z,2.62
2019-01-06T21:19:47.533Z,2.61
2019-01-06T21:22:24.602Z,2.64
2019-01-06T21:24:55.647Z,2.85
2019-01-06T21:27:23.711Z,2.86
2019-01-06T21:30:09.903Z,2.89
2019-01-06T21:32:54.518Z,2.96
2019-01-06T21:35:37.364Z,3.12
2019-01-06T21:38:14.483Z,3.11
2019-01-06T21:40:42.831Z,3.29
2019-01-06T21:43:19.724Z,3.27
2019-01-06T21:45:59.696Z,3.28
2019-01-06T21:48:42.792Z,3.32
2019-01-06T21:51:10.899Z,3.24
2019-01-06T21:53:47.785Z,3.10
2019-01-06T21:56:15.868Z,2.81
2019-01-06T21:58:46.602Z,2.35
2019-01-06T22:01:14.665Z,1.75
2019-01-06T22:03:45.404Z,1.96
2019-01-06T22:06:16.262Z,1.74
2019-01-06T22:08:44.324Z,2.03
2019-01-06T22:11:12.414Z,2.15
2019-01-06T22:13:40.493Z,2.30
2019-01-06T22:16:17.384Z,2.59
2019-01-06T22:18:47.950Z,2.71
2019-01-06T22:21:18.562Z,2.57
2019-01-06T22:24:03.245Z,2.56
2019-01-06T22:26:40.054Z,2.70
2019-01-06T22:29:10.900Z,2.55
2019-01-06T22:31:41.724Z,2.69
2019-01-06T22:34:21.604Z,2.42
2019-01-06T22:36:49.666Z,2.16
2019-01-06T22:39:23.632Z,2.18
2019-01-06T22:41:54.224Z,2.10
2019-01-06T22:44:38.691Z,1.89
2019-01-06T22:47:12.417Z,1.58
2019-01-06T22:49:49.186Z,1.82
2019-01-06T22:52:17.217Z,1.70
2019-01-06T22:54:45.275Z,1.60
2019-01-06T22:57:13.366Z,1.36
2019-01-06T22:59:41.422Z,1.22
2019-01-06T23:02:19.130Z,1.13
2019-01-06T23:04:56.367Z,1.02
2019-01-06T23:07:37.701Z,1.43
2019-01-06T23:10:07.411Z,1.44
2019-01-06T23:12:35.488Z,1.39
2019-01-06T23:15:15.369Z,1.00
2019-01-06T23:17:52.047Z,0.52
2019-01-06T23:20:36.450Z,0.47
2019-01-06T23:23:16.335Z,0.87
2019-01-06T23:26:02.208Z,0.51
2019-01-06T23:28:32.890Z,0.84
2019-01-06T23:31:00.944Z,0.81
2019-01-06T23:33:31.579Z,0.43
2019-01-06T23:36:05.183Z,0.34
2019-01-06T23:38:36.036Z,0.49
2019-01-06T23:41:20.607Z,0.07
2019-01-06T23:43:54.233Z,0.04
2019-01-06T23:46:39.110Z,-0.05
2019-01-06T23:49:25.091Z,-0.02
2019-01-06T23:51:58.729Z,-0.02
2019-01-06T23:54:42.199Z,0.31
2019-01-06T23:57:16.225Z,0.58
2019-01-06T23:59:47.069Z,0.44
